sensor_id;sensor_type;location;lat;lon;timestamp;temperature;humidity
20858;DHT22;10589;53.636;10.012;2023-12-14T04:45:19;4.30;99.90
20858;DHT22;10589;53.636;10.012;2023-12-14T04:47:45;4.20;99.90
20858;DHT22;10589;53.636;10.012;2023-12-14T04:50:11;4.20;99.90
20858;DHT22;10589;53.636;10.012;2023-12-14T04:52:37;4.20;99.90
20858;DHT22;10589;53.636;10.012;2023-12-14T04:55:03;4.20;99.90
20858;DHT22;10589;53.636;10.012;2023-12-14T04:57:29;4.20;99.90
20858;DHT22;10589;53.636;10.012;2023-12-14T04:59:54;4.20;99.90
20858;DHT22;10589;53.636;10.012;2023-12-14T05:02:20;4.20;99.90
20858;DHT22;10589;53.636;10.012;2023-12-14T05:04:45;4.20;99.90
20858;DHT22;10589;53.636;10.012;2023-12-14T05:07:11;4.20;99.90
20858;DHT22;10589;53.636;10.012;2023-12-14T05:09:36;4.10;99.90
20858;DHT22;10589;53.636;10.012;2023-12-14T05:12:03;4.10;99.90
20858;DHT22;10589;53.636;10.012;2023-12-14T05:14:29;4.10;99.90
20858;DHT22;10589;53.636;10.012;2023-12-14T05:16:55;4.10;99.90
20858;DHT22;10589;53.636;10.012;2023-12-14T05:19:20;4.10;99.90
20858;DHT22;10589;53.636;10.012;2023-12-14T05:21:46;4.10;99.90
20858;DHT22;10589;53.636;10.012;2023-12-14T05:24:12;4.10;99.90
20858;DHT22;10589;53.636;10.012;2023-12-14T05:26:37;4.10;99.90
20858;DHT22;10589;53.636;10.012;2023-12-14T05:29:03;4.10;99.90
20858;DHT22;10589;53.636;10.012;2023-12-14T05:31:29;4.10;99.90
20858;DHT22;10589;53.636;10.012;2023-12-14T05:33:54;4.10;99.90
20858;DHT22;10589;53.636;10.012;2023-12-14T05:36:20;4.00;99.90
20858;DHT22;10589;53.636;10.012;2023-12-14T05:38:46;4.00;99.90
20858;DHT22;10589;53.636;10.012;2023-12-14T05:41:12;4.00;99.90
20858;DHT22;10589;53.636;10.012;2023-12-14T05:43:37;4.00;99.90
20858;DHT22;10589;53.636;10.012;2023-12-14T05:46:03;3.90;99.90
20858;DHT22;10589;53.636;10.012;2023-12-14T05:48:29;4.00;99.90
20858;DHT22;10589;53.636;10.012;2023-12-14T05:50:56;3.90;99.90
20858;DHT22;10589;53.636;10.012;2023-12-14T05:53:22;3.90;99.90
20858;DHT22;10589;53.636;10.012;2023-12-14T05:55:47;3.90;99.90
20858;DHT22;10589;53.636;10.012;2023-12-14T05:58:13;3.90;99.90
20858;DHT22;10589;53.636;10.012;2023-12-14T06:00:39;3.90;99.90
20858;DHT22;10589;53.636;10.012;2023-12-14T06:03:05;3.90;99.90
20858;DHT22;10589;53.636;10.012;2023-12-14T06:05:31;3.90;99.90
20858;DHT22;10589;53.636;10.012;2023-12-14T06:07:56;3.90;99.90
20858;DHT22;10589;53.636;10.012;2023-12-14T06:10:22;3.90;99.90
20858;DHT22;10589;53.636;10.012;2023-12-14T06:12:48;3.90;99.90
20858;DHT22;10589;53.636;10.012;2023-12-14T06:15:13;3.90;99.90
20858;DHT22;10589;53.636;10.012;2023-12-14T06:17:39;3.90;99.90
20858;DHT22;10589;53.636;10.012;2023-12-14T06:20:06;3.90;99.90
20858;DHT22;10589;53.636;10.012;2023-12-14T06:22:39;3.90;99.90
20858;DHT22;10589;53.636;10.012;2023-12-14T06:25:04;3.90;99.90
20858;DHT22;10589;53.636;10.012;2023-12-14T06:27:30;3.90;99.90
20858;DHT22;10589;53.636;10.012;2023-12-14T06:29:56;3.90;99.90
20858;DHT22;10589;53.636;10.012;2023-12-14T06:32:21;3.90;99.90
20858;DHT22;10589;53.636;10.012;2023-12-14T06:34:47;3.90;99.90
20858;DHT22;10589;53.636;10.012;2023-12-14T06:37:13;3.90;99.90
20858;DHT22;10589;53.636;10.012;2023-12-14T06:39:40;3.90;99.90
20858;DHT22;10589;53.636;10.012;2023-12-14T06:42:06;3.90;99.90
20858;DHT22;10589;53.636;10.012;2023-12-14T06:44:32;3.90;99.90
20858;DHT22;10589;53.636;10.012;2023-12-14T06:46:57;3.90;99.90
20858;DHT22;10589;53.636;10.012;2023-12-14T06:49:24;3.90;99.90
20858;DHT22;10589;53.636;10.012;2023-12-14T06:51:50;3.90;99.90
20858;DHT22;10589;53.636;10.012;2023-12-14T06:54:15;3.90;99.90
20858;DHT22;10589;53.636;10.012;2023-12-14T06:56:41;3.90;99.90
20858;DHT22;10589;53.636;10.012;2023-12-14T06:59:06;3.90;99.90
20858;DHT22;10589;53.636;10.012;2023-12-14T07:01:32;3.90;99.90
20858;DHT22;10589;53.636;10.012;2023-12-14T07:03:57;4.00;99.90
20858;DHT22;10589;53.636;10.012;2023-12-14T07:06:23;4.00;99.90
20858;DHT22;10589;53.636;10.012;2023-12-14T07:08:48;3.90;99.90
20858;DHT22;10589;53.636;10.012;2023-12-14T07:11:14;4.00;99.90
20858;DHT22;10589;53.636;10.012;2023-12-14T07:13:40;3.90;99.90
20858;DHT22;10589;53.636;10.012;2023-12-14T07:16:10;3.90;99.90
20858;DHT22;10589;53.636;10.012;2023-12-14T07:18:41;3.90;99.90
20858;DHT22;10589;53.636;10.012;2023-12-14T07:21:07;4.00;99.90
20858;DHT22;10589;53.636;10.012;2023-12-14T07:23:34;3.90;99.90
20858;DHT22;10589;53.636;10.012;2023-12-14T07:26:00;4.00;99.90
20858;DHT22;10589;53.636;10.012;2023-12-14T07:28:26;3.90;99.90
20858;DHT22;10589;53.636;10.012;2023-12-14T07:30:52;4.00;99.90
20858;DHT22;10589;53.636;10.012;2023-12-14T07:33:17;3.90;99.90
20858;DHT22;10589;53.636;10.012;2023-12-14T07:35:43;4.00;99.90
20858;DHT22;10589;53.636;10.012;2023-12-14T07:38:12;3.90;99.90
20858;DHT22;10589;53.636;10.012;2023-12-14T07:40:38;3.90;99.90
20858;DHT22;10589;53.636;10.012;2023-12-14T07:43:05;3.90;99.90
20858;DHT22;10589;53.636;10.012;2023-12-14T07:45:30;3.90;99.90
20858;DHT22;10589;53.636;10.012;2023-12-14T07:47:56;4.00;99.90
20858;DHT22;10589;53.636;10.012;2023-12-14T07:50:21;3.90;99.90
20858;DHT22;10589;53.636;10.012;2023-12-14T07:52:47;3.90;99.90
20858;DHT22;10589;53.636;10.012;2023-12-14T07:55:13;3.90;99.90
20858;DHT22;10589;53.636;10.012;2023-12-14T07:57:41;4.00;99.90
20858;DHT22;10589;53.636;10.012;2023-12-14T08:00:07;4.00;99.90
20858;DHT22;10589;53.636;10.012;2023-12-14T08:02:36;3.90;99.90
20858;DHT22;10589;53.636;10.012;2023-12-14T08:05:03;3.90;99.90
20858;DHT22;10589;53.636;10.012;2023-12-14T08:07:28;3.90;99.90
20858;DHT22;10589;53.636;10.012;2023-12-14T08:09:55;3.90;99.90
20858;DHT22;10589;53.636;10.012;2023-12-14T08:12:22;3.90;99.90
20858;DHT22;10589;53.636;10.012;2023-12-14T08:14:47;3.90;99.90
20858;DHT22;10589;53.636;10.012;2023-12-14T08:17:13;4.00;99.90
20858;DHT22;10589;53.636;10.012;2023-12-14T08:19:39;4.00;99.90
20858;DHT22;10589;53.636;10.012;2023-12-14T08:22:04;3.90;99.90
20858;DHT22;10589;53.636;10.012;2023-12-14T08:24:30;4.00;99.90
20858;DHT22;10589;53.636;10.012;2023-12-14T08:26:55;4.00;99.90
20858;DHT22;10589;53.636;10.012;2023-12-14T08:29:21;4.00;99.90
20858;DHT22;10589;53.636;10.012;2023-12-14T08:31:47;4.00;99.90
20858;DHT22;10589;53.636;10.012;2023-12-14T08:34:13;4.00;99.90
20858;DHT22;10589;53.636;10.012;2023-12-14T08:36:39;4.00;99.90
20858;DHT22;10589;53.636;10.012;2023-12-14T08:39:05;4.00;99.90
20858;DHT22;10589;53.636;10.012;2023-12-14T08:41:31;4.00;99.90
20858;DHT22;10589;53.636;10.012;2023-12-14T08:43:56;4.00;99.90
20858;DHT22;10589;53.636;10.012;2023-12-14T08:46:22;4.00;99.90
20858;DHT22;10589;53.636;10.012;2023-12-14T08:48:48;4.00;99.90
20858;DHT22;10589;53.636;10.012;2023-12-14T08:51:14;4.00;99.90
20858;DHT22;10589;53.636;10.012;2023-12-14T08:53:39;4.00;99.90
20858;DHT22;10589;53.636;10.012;2023-12-14T08:56:05;4.00;99.90
20858;DHT22;10589;53.636;10.012;2023-12-14T08:58:31;4.10;99.90
20858;DHT22;10589;53.636;10.012;2023-12-14T09:00:57;4.10;99.90
20858;DHT22;10589;53.636;10.012;2023-12-14T09:03:23;4.10;99.90
20858;DHT22;10589;53.636;10.012;2023-12-14T09:05:48;4.10;99.90
20858;DHT22;10589;53.636;10.012;2023-12-14T09:08:14;4.10;99.90
20858;DHT22;10589;53.636;10.012;2023-12-14T09:10:39;4.10;99.90
20858;DHT22;10589;53.636;10.012;2023-12-14T09:13:05;4.10;99.90
20858;DHT22;10589;53.636;10.012;2023-12-14T09:15:32;4.10;99.90
20858;DHT22;10589;53.636;10.012;2023-12-14T09:17:57;4.10;99.90
20858;DHT22;10589;53.636;10.012;2023-12-14T09:20:23;4.10;99.90
20858;DHT22;10589;53.636;10.012;2023-12-14T09:22:49;4.20;99.90
20858;DHT22;10589;53.636;10.012;2023-12-14T09:25:14;4.10;99.90
20858;DHT22;10589;53.636;10.012;2023-12-14T09:27:41;4.10;99.90
20858;DHT22;10589;53.636;10.012;2023-12-14T09:30:07;4.10;99.90
20858;DHT22;10589;53.636;10.012;2023-12-14T09:32:33;4.10;99.90
20858;DHT22;10589;53.636;10.012;2023-12-14T09:34:59;4.10;99.90
20858;DHT22;10589;53.636;10.012;2023-12-14T09:37:24;4.10;99.90
20858;DHT22;10589;53.636;10.012;2023-12-14T09:39:50;4.10;99.90
20858;DHT22;10589;53.636;10.012;2023-12-14T09:42:18;4.10;99.90
20858;DHT22;10589;53.636;10.012;2023-12-14T09:44:46;4.10;99.90
20858;DHT22;10589;53.636;10.012;2023-12-14T09:47:12;4.10;99.90
20858;DHT22;10589;53.636;10.012;2023-12-14T09:49:38;4.10;99.90
20858;DHT22;10589;53.636;10.012;2023-12-14T09:52:06;4.10;99.90
20858;DHT22;10589;53.636;10.012;2023-12-14T09:54:31;4.10;99.90
20858;DHT22;10589;53.636;10.012;2023-12-14T09:56:58;4.10;99.90
20858;DHT22;10589;53.636;10.012;2023-12-14T09:59:23;4.20;99.90
20858;DHT22;10589;53.636;10.012;2023-12-14T10:01:49;4.20;99.90
20858;DHT22;10589;53.636;10.012;2023-12-14T10:04:17;4.20;99.90
20858;DHT22;10589;53.636;10.012;2023-12-14T10:06:45;4.20;99.90
20858;DHT22;10589;53.636;10.012;2023-12-14T10:09:11;4.30;99.90
20858;DHT22;10589;53.636;10.012;2023-12-14T10:11:42;4.30;99.90
20858;DHT22;10589;53.636;10.012;2023-12-14T10:14:22;4.30;99.90
20858;DHT22;10589;53.636;10.012;2023-12-14T10:16:51;4.30;99.90
20858;DHT22;10589;53.636;10.012;2023-12-14T10:19:18;4.30;99.90
20858;DHT22;10589;53.636;10.012;2023-12-14T10:21:46;4.30;99.90
20858;DHT22;10589;53.636;10.012;2023-12-14T10:24:12;4.30;99.90
20858;DHT22;10589;53.636;10.012;2023-12-14T10:26:38;4.30;99.90
20858;DHT22;10589;53.636;10.012;2023-12-14T10:29:04;4.40;99.90
20858;DHT22;10589;53.636;10.012;2023-12-14T10:31:32;4.40;99.90
20858;DHT22;10589;53.636;10.012;2023-12-14T10:34:03;4.30;99.90
20858;DHT22;10589;53.636;10.012;2023-12-14T10:36:29;4.30;99.90
20858;DHT22;10589;53.636;10.012;2023-12-14T10:38:58;4.30;99.90
20858;DHT22;10589;53.636;10.012;2023-12-14T10:41:24;4.30;99.90
20858;DHT22;10589;53.636;10.012;2023-12-14T10:43:55;4.40;99.90
20858;DHT22;10589;53.636;10.012;2023-12-14T10:46:21;4.40;99.90
20858;DHT22;10589;53.636;10.012;2023-12-14T10:48:55;4.30;99.90
20858;DHT22;10589;53.636;10.012;2023-12-14T10:51:23;4.40;99.90
20858;DHT22;10589;53.636;10.012;2023-12-14T10:53:49;4.40;99.90
20858;DHT22;10589;53.636;10.012;2023-12-14T10:56:17;4.40;99.90
20858;DHT22;10589;53.636;10.012;2023-12-14T10:58:57;4.40;99.90
20858;DHT22;10589;53.636;10.012;2023-12-14T11:01:24;4.40;99.90
20858;DHT22;10589;53.636;10.012;2023-12-14T11:03:54;4.40;99.90
20858;DHT22;10589;53.636;10.012;2023-12-14T11:09:01;4.50;99.90
20858;DHT22;10589;53.636;10.012;2023-12-14T11:11:41;4.50;99.90
20858;DHT22;10589;53.636;10.012;2023-12-14T11:14:11;4.50;99.90
20858;DHT22;10589;53.636;10.012;2023-12-14T11:16:38;4.50;99.90
20858;DHT22;10589;53.636;10.012;2023-12-14T11:24:22;4.50;99.90
20858;DHT22;10589;53.636;10.012;2023-12-14T11:26:49;4.50;99.90
20858;DHT22;10589;53.636;10.012;2023-12-14T11:29:15;4.50;99.90
20858;DHT22;10589;53.636;10.012;2023-12-14T11:31:42;4.50;99.90
20858;DHT22;10589;53.636;10.012;2023-12-14T11:34:07;4.60;99.90
20858;DHT22;10589;53.636;10.012;2023-12-14T11:36:33;4.60;99.90
20858;DHT22;10589;53.636;10.012;2023-12-14T11:38:59;4.70;99.90
20858;DHT22;10589;53.636;10.012;2023-12-14T11:41:25;4.70;99.90
20858;DHT22;10589;53.636;10.012;2023-12-14T11:43:51;4.70;99.90
20858;DHT22;10589;53.636;10.012;2023-12-14T11:46:18;4.70;99.90
20858;DHT22;10589;53.636;10.012;2023-12-14T11:48:45;4.70;99.90
20858;DHT22;10589;53.636;10.012;2023-12-14T11:51:11;4.70;99.90
20858;DHT22;10589;53.636;10.012;2023-12-14T11:53:37;4.80;99.90
20858;DHT22;10589;53.636;10.012;2023-12-14T11:56:08;4.70;99.90
20858;DHT22;10589;53.636;10.012;2023-12-14T11:58:34;4.70;99.90
20858;DHT22;10589;53.636;10.012;2023-12-14T12:01:17;4.70;99.90
20858;DHT22;10589;53.636;10.012;2023-12-14T12:03:44;4.70;99.90
20858;DHT22;10589;53.636;10.012;2023-12-14T12:06:26;4.70;99.90
20858;DHT22;10589;53.636;10.012;2023-12-14T12:08:55;4.70;99.90
20858;DHT22;10589;53.636;10.012;2023-12-14T12:11:24;4.80;99.90
20858;DHT22;10589;53.636;10.012;2023-12-14T12:13:54;4.80;99.90
20858;DHT22;10589;53.636;10.012;2023-12-14T12:16:21;4.80;99.90
20858;DHT22;10589;53.636;10.012;2023-12-14T12:18:46;4.70;99.90
20858;DHT22;10589;53.636;10.012;2023-12-14T12:21:12;4.70;99.90
20858;DHT22;10589;53.636;10.012;2023-12-14T12:23:38;4.70;99.90
20858;DHT22;10589;53.636;10.012;2023-12-14T12:26:04;4.70;99.90
20858;DHT22;10589;53.636;10.012;2023-12-14T12:28:31;4.60;99.90
20858;DHT22;10589;53.636;10.012;2023-12-14T12:30:57;4.60;99.90
20858;DHT22;10589;53.636;10.012;2023-12-14T12:33:23;4.60;99.90
20858;DHT22;10589;53.636;10.012;2023-12-14T12:35:48;4.60;99.90
20858;DHT22;10589;53.636;10.012;2023-12-14T12:38:14;4.50;99.90
20858;DHT22;10589;53.636;10.012;2023-12-14T12:40:41;4.50;99.90
20858;DHT22;10589;53.636;10.012;2023-12-14T12:43:07;4.50;99.90
20858;DHT22;10589;53.636;10.012;2023-12-14T12:45:33;4.50;99.90
20858;DHT22;10589;53.636;10.012;2023-12-14T12:48:00;4.50;99.90
20858;DHT22;10589;53.636;10.012;2023-12-14T12:50:28;4.50;99.90
20858;DHT22;10589;53.636;10.012;2023-12-14T12:52:54;4.50;99.90
20858;DHT22;10589;53.636;10.012;2023-12-14T12:55:19;4.50;99.90
20858;DHT22;10589;53.636;10.012;2023-12-14T12:57:45;4.50;99.90
20858;DHT22;10589;53.636;10.012;2023-12-14T13:00:11;4.50;99.90
20858;DHT22;10589;53.636;10.012;2023-12-14T13:02:38;4.60;99.90
20858;DHT22;10589;53.636;10.012;2023-12-14T13:05:05;4.60;99.90
20858;DHT22;10589;53.636;10.012;2023-12-14T13:07:31;4.50;99.90
20858;DHT22;10589;53.636;10.012;2023-12-14T13:09:57;4.50;99.90
20858;DHT22;10589;53.636;10.012;2023-12-14T13:12:22;4.50;99.90
20858;DHT22;10589;53.636;10.012;2023-12-14T13:14:48;4.50;99.90
20858;DHT22;10589;53.636;10.012;2023-12-14T13:17:14;4.50;99.90
20858;DHT22;10589;53.636;10.012;2023-12-14T13:19:42;4.60;99.90
20858;DHT22;10589;53.636;10.012;2023-12-14T13:22:07;4.60;99.90
20858;DHT22;10589;53.636;10.012;2023-12-14T13:24:33;4.60;99.90
20858;DHT22;10589;53.636;10.012;2023-12-14T13:26:59;4.50;99.90
20858;DHT22;10589;53.636;10.012;2023-12-14T13:29:25;4.50;99.90
20858;DHT22;10589;53.636;10.012;2023-12-14T13:31:50;4.50;99.90
20858;DHT22;10589;53.636;10.012;2023-12-14T13:34:16;4.50;99.90
20858;DHT22;10589;53.636;10.012;2023-12-14T13:36:41;4.50;99.90
20858;DHT22;10589;53.636;10.012;2023-12-14T13:39:07;4.40;99.90
20858;DHT22;10589;53.636;10.012;2023-12-14T13:41:32;4.50;99.90
20858;DHT22;10589;53.636;10.012;2023-12-14T13:44:00;4.40;99.90
20858;DHT22;10589;53.636;10.012;2023-12-14T13:46:26;4.40;99.90
20858;DHT22;10589;53.636;10.012;2023-12-14T13:48:51;4.40;99.90
20858;DHT22;10589;53.636;10.012;2023-12-14T13:51:18;4.40;99.90
20858;DHT22;10589;53.636;10.012;2023-12-14T13:53:44;4.40;99.90
20858;DHT22;10589;53.636;10.012;2023-12-14T13:56:10;4.50;99.90
20858;DHT22;10589;53.636;10.012;2023-12-14T13:58:36;4.50;99.90
20858;DHT22;10589;53.636;10.012;2023-12-14T14:01:04;4.50;99.90
20858;DHT22;10589;53.636;10.012;2023-12-14T14:03:34;4.50;99.90
20858;DHT22;10589;53.636;10.012;2023-12-14T14:06:00;4.50;99.90
20858;DHT22;10589;53.636;10.012;2023-12-14T14:08:27;4.50;99.90
20858;DHT22;10589;53.636;10.012;2023-12-14T14:10:53;4.40;99.90
20858;DHT22;10589;53.636;10.012;2023-12-14T14:13:18;4.40;99.90
20858;DHT22;10589;53.636;10.012;2023-12-14T14:15:45;4.40;99.90
20858;DHT22;10589;53.636;10.012;2023-12-14T14:18:11;4.40;99.90
20858;DHT22;10589;53.636;10.012;2023-12-14T14:20:37;4.30;99.90
20858;DHT22;10589;53.636;10.012;2023-12-14T14:23:02;4.30;99.90
20858;DHT22;10589;53.636;10.012;2023-12-14T14:25:28;4.30;99.90
20858;DHT22;10589;53.636;10.012;2023-12-14T14:27:54;4.30;99.90
20858;DHT22;10589;53.636;10.012;2023-12-14T14:30:19;4.30;99.90
20858;DHT22;10589;53.636;10.012;2023-12-14T14:32:45;4.30;99.90
20858;DHT22;10589;53.636;10.012;2023-12-14T14:35:11;4.30;99.90
20858;DHT22;10589;53.636;10.012;2023-12-14T14:37:37;4.30;99.90
20858;DHT22;10589;53.636;10.012;2023-12-14T14:40:03;4.20;99.90
20858;DHT22;10589;53.636;10.012;2023-12-14T14:42:29;4.30;99.90
20858;DHT22;10589;53.636;10.012;2023-12-14T14:44:55;4.30;99.90
20858;DHT22;10589;53.636;10.012;2023-12-14T14:47:21;4.30;99.90
20858;DHT22;10589;53.636;10.012;2023-12-14T14:49:47;4.20;99.90
20858;DHT22;10589;53.636;10.012;2023-12-14T14:52:13;4.20;99.90
20858;DHT22;10589;53.636;10.012;2023-12-14T14:54:38;4.20;99.90
20858;DHT22;10589;53.636;10.012;2023-12-14T14:57:06;4.20;99.90
20858;DHT22;10589;53.636;10.012;2023-12-14T14:59:31;4.10;99.90
20858;DHT22;10589;53.636;10.012;2023-12-14T15:01:57;4.10;99.90
20858;DHT22;10589;53.636;10.012;2023-12-14T15:04:25;4.10;99.90
20858;DHT22;10589;53.636;10.012;2023-12-14T15:06:51;4.10;99.90
20858;DHT22;10589;53.636;10.012;2023-12-14T15:09:16;4.10;99.90
20858;DHT22;10589;53.636;10.012;2023-12-14T15:11:42;4.10;99.90
20858;DHT22;10589;53.636;10.012;2023-12-14T15:14:08;4.10;99.90
20858;DHT22;10589;53.636;10.012;2023-12-14T15:16:33;4.00;99.90
20858;DHT22;10589;53.636;10.012;2023-12-14T15:19:00;4.00;99.90
20858;DHT22;10589;53.636;10.012;2023-12-14T15:21:25;4.00;99.90
20858;DHT22;10589;53.636;10.012;2023-12-14T15:23:51;3.90;99.90
20858;DHT22;10589;53.636;10.012;2023-12-14T15:26:17;3.90;99.90
20858;DHT22;10589;53.636;10.012;2023-12-14T15:28:42;3.90;99.90
20858;DHT22;10589;53.636;10.012;2023-12-14T15:31:08;3.80;99.90
20858;DHT22;10589;53.636;10.012;2023-12-14T15:33:34;3.80;99.90
20858;DHT22;10589;53.636;10.012;2023-12-14T15:35:59;3.80;99.90
20858;DHT22;10589;53.636;10.012;2023-12-14T15:38:26;3.80;99.90
20858;DHT22;10589;53.636;10.012;2023-12-14T15:40:54;3.70;99.90
20858;DHT22;10589;53.636;10.012;2023-12-14T15:43:19;3.70;99.90
20858;DHT22;10589;53.636;10.012;2023-12-14T15:45:45;3.70;99.90
20858;DHT22;10589;53.636;10.012;2023-12-14T15:48:10;3.60;99.90
20858;DHT22;10589;53.636;10.012;2023-12-14T15:50:36;3.60;99.90
20858;DHT22;10589;53.636;10.012;2023-12-14T15:53:03;3.50;99.90
20858;DHT22;10589;53.636;10.012;2023-12-14T15:55:30;3.50;99.90
20858;DHT22;10589;53.636;10.012;2023-12-14T15:57:55;3.40;99.90
20858;DHT22;10589;53.636;10.012;2023-12-14T16:00:21;3.40;99.90
20858;DHT22;10589;53.636;10.012;2023-12-14T16:02:47;3.40;99.90
20858;DHT22;10589;53.636;10.012;2023-12-14T16:05:13;3.30;99.90
20858;DHT22;10589;53.636;10.012;2023-12-14T16:07:38;3.20;99.90
20858;DHT22;10589;53.636;10.012;2023-12-14T16:10:05;3.20;99.90
20858;DHT22;10589;53.636;10.012;2023-12-14T16:12:30;3.20;99.90
20858;DHT22;10589;53.636;10.012;2023-12-14T16:14:56;3.20;99.90
20858;DHT22;10589;53.636;10.012;2023-12-14T16:17:25;3.10;99.90
20858;DHT22;10589;53.636;10.012;2023-12-14T16:19:51;3.10;99.90
20858;DHT22;10589;53.636;10.012;2023-12-14T16:22:16;3.10;99.90
20858;DHT22;10589;53.636;10.012;2023-12-14T16:24:43;3.10;99.90
20858;DHT22;10589;53.636;10.012;2023-12-14T16:27:09;3.10;99.90
20858;DHT22;10589;53.636;10.012;2023-12-14T16:29:35;3.10;99.90
20858;DHT22;10589;53.636;10.012;2023-12-14T16:32:03;3.10;99.90
20858;DHT22;10589;53.636;10.012;2023-12-14T16:34:29;3.10;99.90
20858;DHT22;10589;53.636;10.012;2023-12-14T16:36:55;3.00;99.90
20858;DHT22;10589;53.636;10.012;2023-12-14T16:39:21;2.90;99.90
20858;DHT22;10589;53.636;10.012;2023-12-14T16:41:46;2.90;99.90
20858;DHT22;10589;53.636;10.012;2023-12-14T16:44:12;2.80;99.90
20858;DHT22;10589;53.636;10.012;2023-12-14T16:46:38;2.80;99.90
20858;DHT22;10589;53.636;10.012;2023-12-14T16:49:04;2.70;99.90
20858;DHT22;10589;53.636;10.012;2023-12-14T16:51:29;2.80;99.90
20858;DHT22;10589;53.636;10.012;2023-12-14T16:53:56;2.70;99.90
20858;DHT22;10589;53.636;10.012;2023-12-14T16:56:28;2.70;99.90
20858;DHT22;10589;53.636;10.012;2023-12-14T16:58:55;2.70;99.90
20858;DHT22;10589;53.636;10.012;2023-12-14T17:01:21;2.60;99.90
20858;DHT22;10589;53.636;10.012;2023-12-14T17:03:46;2.60;99.90
20858;DHT22;10589;53.636;10.012;2023-12-14T17:06:17;2.60;99.90
20858;DHT22;10589;53.636;10.012;2023-12-14T17:08:42;2.60;99.90
20858;DHT22;10589;53.636;10.012;2023-12-14T17:11:09;2.60;99.90
20858;DHT22;10589;53.636;10.012;2023-12-14T17:13:35;2.70;99.90
20858;DHT22;10589;53.636;10.012;2023-12-14T17:16:01;2.70;99.90
20858;DHT22;10589;53.636;10.012;2023-12-14T17:18:26;2.70;99.90
20858;DHT22;10589;53.636;10.012;2023-12-14T17:20:52;2.80;99.90
20858;DHT22;10589;53.636;10.012;2023-12-14T17:23:17;2.80;99.90
20858;DHT22;10589;53.636;10.012;2023-12-14T17:25:43;2.80;99.90
20858;DHT22;10589;53.636;10.012;2023-12-14T17:28:09;2.80;99.90
20858;DHT22;10589;53.636;10.012;2023-12-14T17:30:35;2.80;99.90
20858;DHT22;10589;53.636;10.012;2023-12-14T17:33:03;2.80;99.90
20858;DHT22;10589;53.636;10.012;2023-12-14T17:35:31;2.80;99.90
20858;DHT22;10589;53.636;10.012;2023-12-14T17:37:56;2.80;99.90
20858;DHT22;10589;53.636;10.012;2023-12-14T17:40:22;2.80;99.90
20858;DHT22;10589;53.636;10.012;2023-12-14T17:42:49;2.70;99.90
20858;DHT22;10589;53.636;10.012;2023-12-14T17:45:15;2.60;99.90
20858;DHT22;10589;53.636;10.012;2023-12-14T17:47:41;2.50;99.90
20858;DHT22;10589;53.636;10.012;2023-12-14T17:50:06;2.40;99.90
20858;DHT22;10589;53.636;10.012;2023-12-14T17:52:32;2.40;99.90
20858;DHT22;10589;53.636;10.012;2023-12-14T17:54:58;2.40;99.90
20858;DHT22;10589;53.636;10.012;2023-12-14T17:57:23;2.50;99.90
20858;DHT22;10589;53.636;10.012;2023-12-14T17:59:49;2.50;99.90
20858;DHT22;10589;53.636;10.012;2023-12-14T18:02:14;2.50;99.90
20858;DHT22;10589;53.636;10.012;2023-12-14T18:04:40;2.50;99.90
20858;DHT22;10589;53.636;10.012;2023-12-14T18:07:06;2.40;99.90
20858;DHT22;10589;53.636;10.012;2023-12-14T18:09:31;2.40;99.90
20858;DHT22;10589;53.636;10.012;2023-12-14T18:11:57;2.40;99.90
20858;DHT22;10589;53.636;10.012;2023-12-14T18:14:23;2.50;99.90
20858;DHT22;10589;53.636;10.012;2023-12-14T18:16:48;2.40;99.90
20858;DHT22;10589;53.636;10.012;2023-12-14T18:19:14;2.50;99.90
20858;DHT22;10589;53.636;10.012;2023-12-14T18:21:40;2.40;99.90
20858;DHT22;10589;53.636;10.012;2023-12-14T18:24:05;2.40;99.90
20858;DHT22;10589;53.636;10.012;2023-12-14T18:26:31;2.40;99.90
20858;DHT22;10589;53.636;10.012;2023-12-14T18:28:56;2.40;99.90
20858;DHT22;10589;53.636;10.012;2023-12-14T18:31:22;2.40;99.90
20858;DHT22;10589;53.636;10.012;2023-12-14T18:33:48;2.40;99.90
20858;DHT22;10589;53.636;10.012;2023-12-14T18:36:18;2.50;99.90
20858;DHT22;10589;53.636;10.012;2023-12-14T18:38:44;2.50;99.90
20858;DHT22;10589;53.636;10.012;2023-12-14T18:41:10;2.60;99.90
20858;DHT22;10589;53.636;10.012;2023-12-14T18:43:35;2.70;99.90
20858;DHT22;10589;53.636;10.012;2023-12-14T18:46:05;2.70;99.90
20858;DHT22;10589;53.636;10.012;2023-12-14T18:48:30;2.70;99.90
20858;DHT22;10589;53.636;10.012;2023-12-14T18:50:56;2.70;99.90
20858;DHT22;10589;53.636;10.012;2023-12-14T18:53:22;2.70;99.90
20858;DHT22;10589;53.636;10.012;2023-12-14T18:55:48;2.70;99.90
20858;DHT22;10589;53.636;10.012;2023-12-14T18:58:13;2.70;99.90
20858;DHT22;10589;53.636;10.012;2023-12-14T19:00:39;2.60;99.90
20858;DHT22;10589;53.636;10.012;2023-12-14T19:03:04;2.50;99.90
20858;DHT22;10589;53.636;10.012;2023-12-14T19:05:32;2.40;99.90
20858;DHT22;10589;53.636;10.012;2023-12-14T19:07:59;2.30;99.90
20858;DHT22;10589;53.636;10.012;2023-12-14T19:10:25;2.10;99.90
20858;DHT22;10589;53.636;10.012;2023-12-14T19:12:50;2.00;99.90
20858;DHT22;10589;53.636;10.012;2023-12-14T19:15:16;1.90;99.90
20858;DHT22;10589;53.636;10.012;2023-12-14T19:17:42;1.80;99.90
20858;DHT22;10589;53.636;10.012;2023-12-14T19:20:11;1.70;99.90
20858;DHT22;10589;53.636;10.012;2023-12-14T19:22:37;1.60;99.90
20858;DHT22;10589;53.636;10.012;2023-12-14T19:25:10;1.50;99.90
20858;DHT22;10589;53.636;10.012;2023-12-14T19:27:40;1.50;99.90
20858;DHT22;10589;53.636;10.012;2023-12-14T19:30:13;1.40;99.90
20858;DHT22;10589;53.636;10.012;2023-12-14T19:32:39;1.20;99.90
20858;DHT22;10589;53.636;10.012;2023-12-14T19:35:06;1.10;99.90
20858;DHT22;10589;53.636;10.012;2023-12-14T19:37:32;1.00;99.90
20858;DHT22;10589;53.636;10.012;2023-12-14T19:39:58;0.90;99.90
20858;DHT22;10589;53.636;10.012;2023-12-14T19:42:24;0.80;99.90
20858;DHT22;10589;53.636;10.012;2023-12-14T19:44:49;0.90;99.90
20858;DHT22;10589;53.636;10.012;2023-12-14T19:47:15;0.80;99.90
20858;DHT22;10589;53.636;10.012;2023-12-14T19:49:42;0.80;99.90
20858;DHT22;10589;53.636;10.012;2023-12-14T19:52:08;0.80;99.90
20858;DHT22;10589;53.636;10.012;2023-12-14T19:54:36;0.70;99.90
20858;DHT22;10589;53.636;10.012;2023-12-14T19:57:02;0.70;99.90
20858;DHT22;10589;53.636;10.012;2023-12-14T19:59:28;0.70;99.90
20858;DHT22;10589;53.636;10.012;2023-12-14T20:01:53;0.60;99.90
20858;DHT22;10589;53.636;10.012;2023-12-14T20:04:19;0.60;99.90
20858;DHT22;10589;53.636;10.012;2023-12-14T20:06:46;0.60;99.90
20858;DHT22;10589;53.636;10.012;2023-12-14T20:09:12;0.50;99.90
20858;DHT22;10589;53.636;10.012;2023-12-14T20:11:37;0.50;99.90
20858;DHT22;10589;53.636;10.012;2023-12-14T20:14:03;0.40;99.90
20858;DHT22;10589;53.636;10.012;2023-12-14T20:16:29;0.40;99.90